Latest Weather Observations for Kowanyama

IDQ60801

Issued at 8:32 am EST Tuesday 24 October 2017 (issued every 30 minutes, with the page automatically refreshed every 10 minutes)

About weather observations | Map of weather stations | Latest weather observations for QLD | Other Formats
Station Details ID: 029038 Name: KOWANYAMA AIRPORT Lat: -15.48 Lon: 141.75 Height: 9.6 m
Data from the previous 72 hours. | See also: Recent months at Kowanyama
Date/Time
EST
Temp
°C
App
Temp
°C
Dew
Point
°C
Rel
Hum
%
Delta-T
°C
Wind Press
QNH
hPa
Press
MSL
hPa
Rain since
9am
mm
Dir  Spd
km/h
Gust
km/h
Spd
kts
Gust
kts
24/08:30am 28.6 30.5 21.4 65 4.8 ENE 13 20 7 11 1014.5 1014.4 0.0
24/08:00am 27.3 28.4 21.3 69 4.0 NE 17 26 9 14 1014.2 1014.1 0.0
24/07:30am 26.5 28.0 21.3 73 3.4 ENE 15 22 8 12 1013.8 1013.7 0.0
24/07:00am 25.6 27.6 21.5 78 2.7 ENE 13 20 7 11 1013.5 1013.4 0.0
24/06:30am 24.9 27.4 21.8 83 2.1 ENE 11 19 6 10 1013.1 1013.0 0.0
24/06:00am 24.5 27.5 22.0 86 1.7 ENE 9 15 5 8 1012.7 1012.6 0.0
24/05:30am 24.2 27.0 21.5 85 1.8 ENE 9 13 5 7 1012.1 1012.0 0.0
24/05:00am 24.1 27.0 21.0 83 2.0 ENE 7 9 4 5 1011.8 1011.7 0.0
24/04:30am 24.1 26.9 20.8 82 2.2 ENE 7 13 4 7 1011.5 1011.4 0.0
24/04:00am 24.4 26.9 21.1 82 2.2 ENE 9 13 5 7 1011.3 1011.2 0.0
24/03:30am 24.5 27.6 21.4 83 2.0 E 7 9 4 5 1011.3 1011.2 0.0
24/03:00am 24.8 27.9 21.5 82 2.2 ENE 7 7 4 4 1011.3 1011.2 0.0
24/02:30am 25.2 28.9 21.5 80 2.5 ENE 4 7 2 4 1011.4 1011.3 0.0
24/02:00am 25.5 28.3 21.6 79 2.6 NNE 9 13 5 7 1011.3 1011.2 0.0
24/01:30am 25.8 28.2 21.5 77 2.9 NNE 11 19 6 10 1011.4 1011.3 0.0
24/01:00am 26.3 28.3 21.5 75 3.2 NE 13 20 7 11 1011.6 1011.5 0.0
24/12:30am 26.5 28.4 20.6 70 3.9 NE 11 19 6 10 1011.7 1011.6 0.0
24/12:00am 27.2 27.5 17.1 54 6.3 NE 11 17 6 9 1011.8 1011.7 0.0
 
Date/Time
EST
Temp
°C
App
Temp
°C
Dew
Point
°C
Rel
Hum
%
Delta-T
°C
Wind Press
QNH
hPa
Press
MSL
hPa
Rain since
9am
mm
Dir  Spd
km/h
Gust
km/h
Spd
kts
Gust
kts
23/11:30pm 27.8 27.6 14.8 45 7.9 NE 9 15 5 8 1011.7 1011.6 0.0
23/11:00pm 28.2 28.3 15.5 46 7.8 NNE 9 20 5 11 1011.5 1011.4 0.0
23/10:30pm 27.6 28.6 16.9 52 6.7 SSW 7 9 4 5 1010.8 1010.7 0.0
23/10:00pm 27.8 28.1 16.1 49 7.2 SSW 9 13 5 7 1010.4 1010.3 0.0
23/09:30pm 28.0 27.9 16.0 48 7.4 SSW 11 13 6 7 1010.0 1009.9 0.0
23/09:00pm 28.4 28.2 15.7 46 7.8 SSW 11 17 6 9 1009.6 1009.5 0.0
23/08:30pm 28.8 28.3 16.0 45 7.9 SSW 13 19 7 10 1009.4 1009.3 0.0
23/08:00pm 29.1 28.3 16.0 45 8.1 SW 15 20 8 11 1009.1 1009.0 0.0
23/07:30pm 29.6 29.0 15.7 43 8.6 SW 13 20 7 11 1008.7 1008.6 0.0
23/07:00pm 30.4 29.5 14.9 39 9.5 SW 13 20 7 11 1008.3 1008.2 0.0
23/06:30pm 31.4 29.1 14.1 35 10.5 SW 19 28 10 15 1007.9 1007.8 0.0
23/06:00pm 32.8 30.1 13.4 30 11.7 SW 20 28 11 15 1007.6 1007.5 0.0
23/05:30pm 34.3 31.9 13.7 29 12.6 WSW 19 28 10 15 1007.3 1007.2 0.0
23/05:00pm 34.6 31.9 13.4 28 12.9 W 20 28 11 15 1007.0 1006.9 0.0
23/04:30pm 35.5 33.0 14.2 28 13.1 WSW 20 28 11 15 1006.7 1006.6 0.0
23/04:00pm 36.3 35.0 15.9 29 12.9 WSW 17 24 9 13 1006.8 1006.7 0.0
23/03:30pm 36.4 35.6 16.0 29 12.9 WSW 15 20 8 11 1006.9 1006.8 0.0
23/03:00pm 35.7 35.8 15.4 29 12.8 WSW 9 15 5 8 1007.0 1006.9 0.0
23/02:30pm 35.5 35.3 14.7 28 12.9 NNE 9 15 5 8 1007.4 1007.3 0.0
23/02:00pm 36.6 37.2 15.7 29 13.2 WSW 7 15 4 8 1007.7 1007.6 0.0
23/01:30pm 34.2 34.3 15.6 32 11.6 NE 9 15 5 8 1008.1 1008.0 0.0
23/01:00pm 35.3 35.3 15.1 30 12.6 SW 9 15 5 8 1008.5 1008.4 0.0
23/12:30pm 35.1 35.4 15.9 31 12.1 S 9 17 5 9 1009.3 1009.2 0.0
23/12:00pm 33.6 34.0 17.3 37 10.4 SE 11 17 6 9 1009.8 1009.7 0.0
23/11:30am 33.9 33.9 16.3 35 11.1 S 11 17 6 9 1010.2 1010.1 0.0
23/11:00am 33.2 34.2 17.8 40 9.9 SSE 9 15 5 8 1010.6 1010.5 0.0
23/10:30am 32.5 33.9 18.7 44 9.0 ESE 9 17 5 9 1011.0 1010.9 0.0
23/10:00am 31.3 32.2 19.3 49 7.9 ESE 13 24 7 13 1011.2 1011.1 0.0
23/09:30am 30.5 32.2 20.1 53 6.9 ESE 11 19 6 10 1011.4 1011.3 0.0
23/09:00am 29.4 31.7 21.4 62 5.4 ENE 11 15 6 8 1011.5 1011.4 0.0
23/08:30am 28.4 31.1 22.2 69 4.2 E 11 15 6 8 1011.3 1011.2 0.0
23/08:00am 27.0 29.4 21.5 72 3.7 ESE 11 15 6 8 1011.0 1010.9 0.0
23/07:30am 26.0 28.7 20.6 72 3.5 ESE 7 7 4 4 1011.0 1010.9 0.0
23/07:00am 23.9 25.8 18.5 72 3.4 SE 6 7 3 4 1010.8 1010.7 0.0
23/06:30am 22.9 25.1 18.4 76 2.8 SE 4 7 2 4 1010.5 1010.4 0.0
23/06:00am 22.7 24.0 17.6 73 3.2 E 7 11 4 6 1010.3 1010.2 0.0
23/05:30am 23.5 24.2 17.0 67 4.0 SE 9 11 5 6 1009.9 1009.8 0.0
23/05:00am 23.9 24.7 17.2 66 4.2 SSE 9 11 5 6 1009.6 1009.5 0.0
23/04:30am 24.3 24.6 17.8 67 4.1 SE 13 17 7 9 1009.4 1009.3 0.0
23/04:00am 24.4 25.0 18.6 70 3.7 SSE 13 17 7 9 1009.2 1009.1 0.0
23/03:30am 23.9 25.2 19.4 76 2.9 SSE 11 15 6 8 1009.1 1009.0 0.0
23/03:00am 24.3 26.1 19.6 75 3.0 S 9 11 5 6 1009.2 1009.1 0.0
23/02:30am 24.4 26.9 19.9 76 2.9 SSW 6 9 3 5 1009.5 1009.4 0.0
23/02:00am 25.2 27.7 19.8 72 3.5 S 6 7 3 4 1009.5 1009.4 0.0
23/01:30am 25.2 27.3 20.2 74 3.3 S 9 13 5 7 1009.6 1009.5 0.0
23/01:00am 24.9 26.8 20.6 77 2.8 S 11 13 6 7 1009.7 1009.6 0.0
23/12:30am 24.6 27.5 20.7 79 2.6 SSW 6 7 3 4 1010.0 1009.9 0.0
23/12:00am 24.7 28.6 20.4 77 2.8 CALM 0 0 0 0 1010.3 1010.2 0.0
 
Date/Time
EST
Temp
°C
App
Temp
°C
Dew
Point
°C
Rel
Hum
%
Delta-T
°C
Wind Press
QNH
hPa
Press
MSL
hPa
Rain since
9am
mm
Dir  Spd
km/h
Gust
km/h
Spd
kts
Gust
kts
22/11:30pm 25.0 27.8 20.5 76 2.9 SSW 6 9 3 5 1010.3 1010.2 0.0
22/11:00pm 25.3 27.9 20.5 75 3.1 SSW 7 9 4 5 1010.3 1010.2 0.0
22/10:30pm 25.6 27.9 20.6 74 3.3 SSW 9 9 5 5 1010.1 1010.0 0.0
22/10:00pm 25.6 28.6 20.8 75 3.2 SW 6 7 3 4 1010.1 1010.0 0.0
22/09:30pm 26.2 30.3 20.8 72 3.6 CALM 0 0 0 0 1009.8 1009.7 0.0
22/09:00pm 26.5 29.2 20.3 68 4.1 SW 6 7 3 4 1009.7 1009.6 0.0
22/08:30pm 26.9 29.5 20.5 68 4.2 SW 7 9 4 5 1009.5 1009.4 0.0
22/08:00pm 27.4 29.3 20.5 66 4.5 SW 11 15 6 8 1009.3 1009.2 0.0
22/07:30pm 27.8 29.6 20.4 64 4.9 WSW 11 15 6 8 1008.8 1008.7 0.0
22/07:00pm 28.2 29.9 20.2 62 5.3 W 11 17 6 9 1008.7 1008.6 0.0
22/06:30pm 29.1 29.7 20.3 59 5.8 WSW 17 22 9 12 1008.1 1008.0 0.0
22/06:00pm 30.0 30.6 20.3 56 6.4 WSW 17 24 9 13 1007.5 1007.4 0.0
22/05:30pm 30.9 31.2 20.5 54 6.9 WSW 19 24 10 13 1007.2 1007.1 0.0
22/05:00pm 31.2 31.4 20.2 52 7.3 W 19 26 10 14 1007.1 1007.0 0.0
22/04:30pm 31.9 32.2 20.8 51 7.4 W 20 30 11 16 1006.9 1006.8 0.0
22/04:00pm 33.1 33.9 21.3 50 8.0 WSW 19 26 10 14 1007.1 1007.0 0.0
22/03:30pm 32.5 32.9 20.7 49 7.9 WSW 19 26 10 14 1007.2 1007.1 0.0
22/03:00pm 33.1 34.0 20.9 48 8.2 W 17 24 9 13 1007.5 1007.4 0.0
22/02:30pm 32.8 34.2 20.3 47 8.3 WSW 13 20 7 11 1007.8 1007.7 0.0
22/02:00pm 33.1 35.4 20.6 47 8.4 WNW 9 13 5 7 1008.2 1008.1 0.0
22/01:30pm 32.9 34.7 21.1 50 7.9 WNW 13 20 7 11 1008.7 1008.6 0.0
22/01:00pm 31.6 33.2 18.2 44 8.6 W 7 11 4 6 1009.2 1009.1 0.0
22/12:30pm 32.4 34.3 18.9 44 8.8 NW 7 13 4 7 1009.8 1009.7 0.0
22/12:00pm 31.7 34.1 20.0 50 7.7 NNE 7 9 4 5 1010.3 1010.2 0.0
22/11:30am 30.4 31.9 19.7 52 7.0 WNW 11 15 6 8 1010.7 1010.6 0.0
22/11:00am 29.9 32.6 20.2 56 6.4 S 6 15 3 8 1011.1 1011.0 0.0
22/10:30am 30.1 33.0 20.6 56 6.3 SE 6 9 3 5 1011.6 1011.5 0.0
22/10:00am 28.4 31.6 21.2 65 4.8 NE 6 9 3 5 1011.7 1011.6 0.0
22/09:30am 27.4 31.0 20.5 66 4.5 SW 2 7 1 4 1011.7 1011.6 0.0
22/09:00am 26.7 29.3 20.5 69 4.1 SE 7 11 4 6 1011.6 1011.5 5.4
22/08:30am 26.1 28.4 20.7 72 3.5 ESE 9 11 5 6 1011.5 1011.4 5.4
22/08:00am 25.1 27.0 20.6 76 2.9 SSE 11 15 6 8 1011.2 1011.1 5.4
22/07:30am 24.3 25.8 20.6 80 2.4 SSE 13 19 7 10 1010.9 1010.8 5.4
22/07:00am 23.6 25.9 20.7 84 1.9 SSE 9 13 5 7 1010.7 1010.6 5.4
22/06:30am 23.2 25.8 20.5 85 1.8 SSE 7 11 4 6 1010.3 1010.2 5.4
22/06:00am 23.1 26.0 20.6 86 1.6 S 6 9 3 5 1010.0 1009.9 5.4
22/05:30am 23.2 26.0 20.5 85 1.8 SSE 6 7 3 4 1009.8 1009.7 5.4
22/05:00am 23.3 26.0 20.6 85 1.8 S 7 9 4 5 1009.6 1009.5 5.4
22/04:30am 23.7 27.7 20.6 83 2.0 CALM 0 7 0 4 1009.4 1009.3 5.4
22/04:00am 23.8 26.5 20.7 83 2.0 SSE 7 9 4 5 1009.4 1009.3 5.4
22/03:30am 24.1 27.0 20.6 81 2.3 SSE 6 7 3 4 1009.4 1009.3 5.4
22/03:00am 24.4 27.2 20.5 79 2.5 S 6 7 3 4 1009.6 1009.5 5.4
22/02:30am 24.8 26.7 20.5 77 2.8 SSE 11 13 6 7 1009.8 1009.7 5.4
22/02:00am 25.0 27.0 20.7 77 2.8 SSE 11 15 6 8 1010.3 1010.2 5.4
22/01:30am 25.4 27.9 21.1 77 2.8 SSE 9 13 5 7 1010.7 1010.6 5.4
22/01:00am 25.6 28.3 21.3 77 2.8 SSE 9 13 5 7 1010.9 1010.8 5.4
22/12:30am 25.8 28.6 21.5 77 2.9 SSE 9 13 5 7 1011.0 1010.9 5.4
22/12:00am 26.0 28.5 21.7 77 2.9 SSE 11 15 6 8 1011.3 1011.2 5.4
 
Date/Time
EST
Temp
°C
App
Temp
°C
Dew
Point
°C
Rel
Hum
%
Delta-T
°C
Wind Press
QNH
hPa
Press
MSL
hPa
Rain since
9am
mm
Dir  Spd
km/h
Gust
km/h
Spd
kts
Gust
kts
21/11:30pm 26.3 28.4 21.7 76 3.1 SSE 13 20 7 11 1011.4 1011.3 5.4
21/11:00pm 26.5 28.5 22.3 78 2.8 SSE 15 20 8 11 1011.7 1011.6 5.4
21/10:30pm 26.8 29.4 22.6 78 2.8 SSE 13 19 7 10 1011.8 1011.7 5.4
21/10:00pm 26.9 29.2 22.7 78 2.8 SSE 15 20 8 11 1011.6 1011.5 5.4
21/09:30pm 26.6 30.6 23.1 81 2.4 S 7 7 4 4 1011.3 1011.2 5.4
21/09:00pm 26.5 31.0 23.0 81 2.4 SSW 4 6 2 3 1011.2 1011.1 5.4
21/08:30pm 26.4 30.5 22.9 81 2.4 SSW 6 7 3 4 1011.1 1011.0 5.4
21/08:00pm 26.6 30.6 22.7 79 2.6 WSW 6 7 3 4 1010.8 1010.7 5.4
21/07:30pm 27.0 30.6 22.4 76 3.1 W 7 9 4 5 1010.6 1010.5 5.4
21/07:00pm 27.2 29.9 22.2 74 3.4 WSW 11 15 6 8 1010.3 1010.2 5.4
21/06:30pm 27.7 30.2 21.7 70 4.0 WSW 11 15 6 8 1010.0 1009.9 5.4
21/06:00pm 28.3 29.3 21.8 68 4.4 SW 19 24 10 13 1009.7 1009.6 5.4
21/05:30pm 28.9 29.7 21.4 64 5.0 W 19 26 10 14 1009.3 1009.2 5.4
21/05:00pm 29.8 30.9 21.2 60 5.8 W 17 24 9 13 1009.1 1009.0 5.4
21/04:30pm 30.1 31.2 22.0 62 5.5 WNW 19 24 10 13 1008.8 1008.7 5.4
21/04:00pm 31.2 32.9 21.7 57 6.4 W 15 20 8 11 1008.7 1008.6 5.4
21/03:30pm 30.9 34.8 22.5 61 5.7 NE 6 7 3 4 1009.0 1008.9 5.4
21/03:00pm 30.2 34.0 22.4 63 5.3 NW 6 9 3 5 1009.3 1009.2 5.4
21/02:30pm 29.3 33.3 22.0 64 4.9 S 4 7 2 4 1009.9 1009.8 5.4
21/02:00pm 27.5 30.9 22.7 75 3.3 SE 9 11 5 6 1010.3 1010.2 5.4
21/01:30pm 25.3 28.1 23.0 87 1.6 SW 13 20 7 11 1011.2 1011.1 4.8
21/01:15pm 26.5 27.3 21.7 75 3.2 WSW 20 28 11 15 1011.3 1011.2 0.0
21/01:00pm 31.5 34.4 22.5 59 6.2 WNW 11 19 6 10 1011.2 1011.1 0.0
21/12:30pm 29.6 32.7 23.5 69 4.2 NNW 13 19 7 10 1011.9 1011.8 0.0
21/12:00pm 28.6 30.5 22.1 68 4.4 NW 15 24 8 13 1012.3 1012.2 0.0
21/11:30am 31.3 34.6 21.5 56 6.6 W 6 9 3 5 1012.8 1012.7 0.0
21/11:00am 29.9 32.9 21.3 60 5.8 E 7 13 4 7 1013.2 1013.1 0.0
21/10:30am 29.1 31.5 21.6 64 5.0 NE 11 17 6 9 1013.6 1013.5 0.0
21/10:00am 28.6 31.6 21.9 67 4.5 E 9 15 5 8 1013.9 1013.8 0.0
21/09:30am 27.9 30.6 22.2 71 3.8 ENE 11 17 6 9 1013.9 1013.8 0.0
21/09:00am 27.0 29.3 22.0 74 3.4 NE 13 20 7 11 1013.9 1013.8 8.0

Other Formats:

Comma delimited format used in spreadsheet applications
http://www.bom.gov.au/fwo/IDQ60801/IDQ60801.94268.axf

JavaScript Object Notation format (JSON) in row-major order
http://www.bom.gov.au/fwo/IDQ60801/IDQ60801.94268.json